Time;durP1;ratioP1;P1;durP2;ratioP2;P2;SDS_P1;SDS_P2;PMS_P1;PMS_P2;Temp;Humidity;BMP_temperature;BMP_pressure;BME280_temperature;BME280_humidity;BME280_pressure;Samples;Min_cycle;Max_cycle;Signal;HPM_P1;HPM_P2
2022/04/10 00:03:05;;;;;;;15.13;11.43;;;307.20;2304.00;;;;;;4729697;30;20044;-81
2022/04/10 00:06:22;;;;;;;12.63;10.90;;;282.50;2278.40;;;;;;4739479;30;20513;-82
2022/04/10 00:09:13;;;;;;;11.38;9.35;;;282.50;2278.40;;;;;;4788951;29;20045;-83
2022/04/10 00:12:18;;;;;;;12.80;9.90;;;281.90;2278.40;;;;;;4834291;29;20034;-85
2022/04/10 00:15:37;;;;;;;11.80;9.80;;;282.10;2278.40;;;;;;4843482;29;20034;-84
2022/04/10 00:18:50;;;;;;;;;;;;;;;;;;;;;
2022/04/10 00:21:47;;;;;;;11.45;9.35;;;282.00;2278.40;;;;;;4844251;29;20037;-83
2022/04/10 00:24:15;;;;;;;12.65;10.82;;;281.80;2278.40;;;;;;4844073;29;20391;-82
2022/04/10 00:26:41;;;;;;;11.02;9.82;;;281.80;2278.40;;;;;;4844135;29;20034;-83
2022/04/10 00:29:11;;;;;;;11.90;9.75;;;281.80;2278.40;;;;;;4845721;29;20046;-84
2022/04/10 00:31:38;;;;;;;13.20;11.05;;;281.80;2278.40;;;;;;4843149;29;20034;-84
2022/04/10 00:34:04;;;;;;;12.60;10.65;;;281.70;2278.40;;;;;;4813697;29;20049;-84
2022/04/10 00:36:31;;;;;;;13.88;11.57;;;281.80;2278.40;;;;;;4846495;29;20057;-85
2022/04/10 00:39:01;;;;;;;14.02;11.05;;;281.70;2278.40;;;;;;4863676;29;20046;-82
2022/04/10 00:41:27;;;;;;;14.10;11.50;;;256.90;2252.80;;;;;;4846102;29;20053;-80
2022/04/10 00:44:07;;;;;;;15.57;12.30;;;256.90;2252.80;;;;;;4863203;29;20059;-84
2022/04/10 00:46:36;;;;;;;14.98;12.85;;;281.60;2278.40;;;;;;4863537;29;20029;-83
2022/04/10 00:49:03;;;;;;;16.35;13.40;;;256.70;2252.80;;;;;;4846168;29;20033;-82
2022/04/10 00:51:40;;;;;;;15.80;13.20;;;256.80;2252.80;;;;;;4845658;29;20533;-80
2022/04/10 00:54:24;;;;;;;14.68;12.57;;;256.40;2252.80;;;;;;4845661;29;20033;-81
2022/04/10 00:56:52;;;;;;;15.57;13.52;;;256.50;2252.80;;;;;;4829257;29;20049;-78
2022/04/10 00:59:18;;;;;;;16.92;13.63;;;256.50;2252.80;;;;;;4862118;29;20542;-83
2022/04/10 01:01:45;;;;;;;17.52;14.10;;;256.50;2252.80;;;;;;4845947;29;20033;-81
2022/04/10 01:04:16;;;;;;;14.18;12.38;;;256.30;2252.80;;;;;;4846347;29;20037;-81
2022/04/10 01:06:52;;;;;;;17.30;14.05;;;256.40;2252.80;;;;;;4846229;29;20033;-80
2022/04/10 01:09:22;;;;;;;13.82;11.70;;;256.40;2252.80;;;;;;4846453;29;20060;-83
2022/04/10 01:11:53;;;;;;;19.65;14.50;;;256.50;2252.80;;;;;;4846342;29;20098;-84
2022/04/10 01:14:23;;;;;;;15.43;13.38;;;256.50;2252.80;;;;;;4831855;29;20038;-86
2022/04/10 01:16:51;;;;;;;15.05;13.40;;;256.60;2252.80;;;;;;4847027;29;20037;-83
2022/04/10 01:19:28;;;;;;;15.73;13.77;;;256.50;2252.80;;;;;;4848023;29;20042;-83
2022/04/10 01:22:04;;;;;;;14.75;12.98;;;256.50;2252.80;;;;;;4846183;29;20061;-81
2022/04/10 01:24:35;;;;;;;15.05;12.73;;;256.40;2252.80;;;;;;4846031;29;20033;-82
2022/04/10 01:27:08;;;;;;;14.82;12.65;;;256.50;2252.80;;;;;;4816717;29;20034;-82
2022/04/10 01:29:34;;;;;;;17.38;13.38;;;256.40;2252.80;;;;;;4839684;29;20044;-80
2022/04/10 01:32:03;;;;;;;16.27;13.60;;;256.10;2252.80;;;;;;4861266;29;20036;-80
2022/04/10 01:34:30;;;;;;;17.67;14.02;;;256.00;2252.80;;;;;;4849064;29;20057;-83
2022/04/10 01:37:03;;;;;;;15.80;13.63;;;256.10;2252.80;;;;;;4847341;29;20082;-82
2022/04/10 01:39:29;;;;;;;15.68;13.05;;;256.00;2252.80;;;;;;4846889;29;20030;-82
2022/04/10 01:42:07;;;;;;;16.15;13.68;;;231.30;2252.80;;;;;;4847043;29;20048;-86
2022/04/10 01:44:48;;;;;;;17.05;12.98;;;231.30;2252.80;;;;;;4831182;29;20033;-83
2022/04/10 01:47:14;;;;;;;15.38;12.95;;;231.30;2252.80;;;;;;4847708;29;20034;-83
2022/04/10 01:49:44;;;;;;;16.35;13.80;;;256.00;2252.80;;;;;;4846438;29;20041;-79
2022/04/10 01:52:18;;;;;;;16.58;13.70;;;256.00;2252.80;;;;;;4848060;29;20030;-82
2022/04/10 01:54:44;;;;;;;15.35;12.75;;;231.30;2252.80;;;;;;4844307;29;20034;-83
2022/04/10 01:57:10;;;;;;;15.75;13.50;;;231.20;2252.80;;;;;;4847860;29;20129;-81
2022/04/10 01:59:37;;;;;;;16.90;13.77;;;256.00;2252.80;;;;;;4846532;29;20038;-85
2022/04/10 02:02:03;;;;;;;16.40;13.18;;;231.20;2252.80;;;;;;4846664;29;20037;-80
2022/04/10 02:04:30;;;;;;;15.52;12.63;;;231.20;2252.80;;;;;;4846651;29;20030;-82
2022/04/10 02:06:58;;;;;;;18.55;13.23;;;231.20;2252.80;;;;;;4847950;29;20051;-84
2022/04/10 02:09:25;;;;;;;17.10;13.85;;;231.30;2252.80;;;;;;4846249;29;20065;-80
2022/04/10 02:11:55;;;;;;;14.32;11.15;;;231.30;2252.80;;;;;;4832341;29;20068;-84
2022/04/10 02:14:59;;;;;;;12.65;11.02;;;231.20;2252.80;;;;;;4849251;29;20029;-84
2022/04/10 02:17:44;;;;;;;10.57;7.35;;;231.10;2252.80;;;;;;4847716;29;20038;-82
2022/04/10 02:20:10;;;;;;;7.57;5.35;;;230.80;2252.80;;;;;;4845430;29;20117;-81
2022/04/10 02:22:36;;;;;;;5.90;3.83;;;230.80;2252.80;;;;;;4844120;29;20399;-78
2022/04/10 02:25:04;;;;;;;6.57;2.60;;;230.60;2252.80;;;;;;4846102;29;20026;-83
2022/04/10 02:27:30;;;;;;;4.32;3.08;;;230.40;2252.80;;;;;;4845730;29;20026;-82
2022/04/10 02:29:56;;;;;;;6.43;1.85;;;230.40;2252.80;;;;;;4844052;29;20158;-80
2022/04/10 02:32:23;;;;;;;4.43;2.08;;;205.60;2252.80;;;;;;4844059;29;20034;-78
2022/04/10 02:34:49;;;;;;;3.35;1.67;;;205.50;2252.80;;;;;;4844041;29;20505;-79
2022/04/10 02:37:14;;;;;;;2.83;1.50;;;205.40;2252.80;;;;;;4843675;29;20050;-78
2022/04/10 02:39:40;;;;;;;2.85;1.30;;;205.10;2252.80;;;;;;4844147;29;20038;-82
2022/04/10 02:42:06;;;;;;;2.33;1.10;;;205.10;2252.80;;;;;;4844211;29;20109;-81
2022/04/10 02:44:32;;;;;;;3.63;1.60;;;204.90;2252.80;;;;;;4843111;29;20034;-80
2022/04/10 02:46:58;;;;;;;4.88;1.38;;;204.90;2252.80;;;;;;4844607;29;20045;-79
2022/04/10 02:49:23;;;;;;;3.20;1.20;;;180.10;2252.80;;;;;;4844515;29;20030;-77
2022/04/10 02:51:49;;;;;;;3.67;1.20;;;180.00;2252.80;;;;;;4845413;29;20121;-79
2022/04/10 02:54:16;;;;;;;3.08;1.63;;;180.00;2252.80;;;;;;4848420;29;20045;-80
2022/04/10 02:56:42;;;;;;;3.50;1.50;;;179.80;2252.80;;;;;;4849763;29;20549;-79
2022/04/10 02:59:11;;;;;;;3.80;1.30;;;179.70;2252.80;;;;;;4849715;29;20038;-80
2022/04/10 03:01:37;;;;;;;2.47;1.30;;;179.60;2252.80;;;;;;4847473;29;20065;-79
2022/04/10 03:04:03;;;;;;;3.78;1.20;;;179.70;2252.80;;;;;;4844364;29;20057;-77
2022/04/10 03:06:29;;;;;;;2.70;1.15;;;179.60;2252.80;;;;;;4844130;29;20034;-80
2022/04/10 03:08:55;;;;;;;2.38;1.20;;;179.60;2252.80;;;;;;4844661;29;20026;-80
2022/04/10 03:11:20;;;;;;;2.30;1.20;;;179.70;2252.80;;;;;;4844105;29;20437;-78
2022/04/10 03:13:46;;;;;;;2.78;1.50;;;179.70;2252.80;;;;;;4844811;29;20030;-82
2022/04/10 03:16:12;;;;;;;2.88;1.33;;;179.70;2252.80;;;;;;4844508;29;20187;-82
2022/04/10 03:18:40;;;;;;;2.97;1.30;;;179.70;2252.80;;;;;;4843121;29;20026;-78
2022/04/10 03:21:06;;;;;;;2.22;1.17;;;179.60;2252.80;;;;;;4843685;29;20030;-77
2022/04/10 03:23:32;;;;;;;6.03;1.50;;;179.60;2252.80;;;;;;4843709;29;20495;-77
2022/04/10 03:25:58;;;;;;;4.57;1.45;;;179.60;2252.80;;;;;;4843235;29;20033;-79
2022/04/10 03:29:09;;;;;;;4.05;1.67;;;179.60;2252.80;;;;;;4843201;29;20037;-83
2022/04/10 03:31:35;;;;;;;3.83;1.63;;;179.60;2252.80;;;;;;4842469;29;20025;-79
2022/04/10 03:34:01;;;;;;;3.20;1.70;;;179.70;2252.80;;;;;;4842720;29;20037;-79
2022/04/10 03:36:26;;;;;;;2.90;1.15;;;179.70;2252.80;;;;;;4844640;29;20551;-78
2022/04/10 03:38:52;;;;;;;2.72;1.40;;;179.60;2252.80;;;;;;4845647;29;20032;-77
2022/04/10 03:41:18;;;;;;;4.03;1.48;;;179.50;2252.80;;;;;;4846467;29;20036;-78
2022/04/10 03:43:43;;;;;;;2.55;1.30;;;179.70;2252.80;;;;;;4863119;29;20030;-77
2022/04/10 03:46:09;;;;;;;6.63;3.88;;;179.70;2252.80;;;;;;4862487;29;20057;-80
2022/04/10 03:48:35;;;;;;;3.30;1.92;;;179.70;2252.80;;;;;;4846132;29;20534;-78
2022/04/10 03:51:01;;;;;;;3.45;1.38;;;179.70;2252.80;;;;;;4863205;29;20105;-83
2022/04/10 03:53:27;;;;;;;3.05;1.45;;;179.70;2252.80;;;;;;4846667;29;20068;-80
2022/04/10 03:55:52;;;;;;;3.15;1.52;;;179.70;2252.80;;;;;;4847114;29;20081;-77
2022/04/10 03:58:18;;;;;;;3.00;1.48;;;179.50;2252.80;;;;;;4847446;29;20033;-81
2022/04/10 04:00:45;;;;;;;2.13;1.08;;;179.60;2252.80;;;;;;4863275;29;20030;-83
2022/04/10 04:03:11;;;;;;;2.20;1.20;;;179.70;2252.80;;;;;;4847330;29;20118;-80
2022/04/10 04:05:36;;;;;;;3.10;1.60;;;179.60;2252.80;;;;;;4847333;29;20463;-81
2022/04/10 04:08:03;;;;;;;3.30;1.35;;;180.10;2252.80;;;;;;4884034;29;20042;-78
2022/04/10 04:10:29;;;;;;;3.78;1.50;;;179.70;2252.80;;;;;;4881851;29;20085;-78
2022/04/10 04:12:58;;;;;;;3.05;1.50;;;179.60;2252.80;;;;;;4864385;29;20029;-80
2022/04/10 04:15:24;;;;;;;12.32;3.80;;;179.50;2252.80;;;;;;4835722;29;20069;-81
2022/04/10 04:17:50;;;;;;;13.13;3.90;;;179.40;2252.80;;;;;;4835067;29;20504;-81
2022/04/10 04:20:19;;;;;;;3.75;1.70;;;179.50;2252.80;;;;;;4850402;29;20168;-79
2022/04/10 04:22:45;;;;;;;3.83;1.90;;;179.40;2252.80;;;;;;4845817;29;20061;-78
2022/04/10 04:25:11;;;;;;;4.78;1.88;;;179.40;2252.80;;;;;;4845719;29;20368;-79
2022/04/10 04:27:38;;;;;;;3.38;1.80;;;179.30;2252.80;;;;;;4845387;29;20165;-81
2022/04/10 04:30:05;;;;;;;4.25;2.10;;;179.20;2252.80;;;;;;4846329;29;20032;-80
2022/04/10 04:32:34;;;;;;;4.15;2.13;;;179.40;2252.80;;;;;;4845770;29;20037;-78
2022/04/10 04:35:12;;;;;;;4.07;2.35;;;179.40;2252.80;;;;;;4844763;29;20030;-83
2022/04/10 04:37:41;;;;;;;4.95;2.15;;;179.50;2252.80;;;;;;4841716;29;20140;-79
2022/04/10 04:40:16;;;;;;;3.92;2.25;;;154.20;2252.80;;;;;;4842216;29;20029;-82
2022/04/10 04:42:42;;;;;;;5.00;2.47;;;179.20;2252.80;;;;;;4841577;29;20045;-78
2022/04/10 04:45:10;;;;;;;4.65;3.13;;;179.30;2252.80;;;;;;4843082;29;20026;-80
2022/04/10 04:47:39;;;;;;;11.25;7.68;;;154.50;2252.80;;;;;;4842255;29;20034;-82
2022/04/10 04:50:06;;;;;;;22.50;12.98;;;154.50;2252.80;;;;;;4841826;29;20018;-80
2022/04/10 04:52:32;;;;;;;22.58;13.00;;;154.50;2252.80;;;;;;4842749;29;20040;-77
2022/04/10 04:54:58;;;;;;;16.55;10.30;;;154.50;2252.80;;;;;;4842445;29;20117;-79
2022/04/10 04:57:26;;;;;;;11.70;7.53;;;179.30;2252.80;;;;;;4839923;29;20120;-79
2022/04/10 04:59:52;;;;;;;12.85;8.52;;;179.40;2252.80;;;;;;4841546;29;20098;-81
2022/04/10 05:02:37;;;;;;;9.52;7.07;;;179.30;2252.80;;;;;;4840340;29;20038;-79
2022/04/10 05:05:03;;;;;;;8.10;5.80;;;179.40;2252.80;;;;;;4841773;29;20022;-81
2022/04/10 05:07:29;;;;;;;7.78;5.80;;;179.70;2252.80;;;;;;4842214;29;20129;-82
2022/04/10 05:09:55;;;;;;;9.15;5.45;;;179.20;2252.80;;;;;;4845159;29;20117;-81
2022/04/10 05:12:21;;;;;;;7.95;5.68;;;179.40;2252.80;;;;;;4845522;29;20450;-80
2022/04/10 05:14:48;;;;;;;5.85;4.57;;;179.40;2252.80;;;;;;4845457;29;20041;-80
2022/04/10 05:17:14;;;;;;;4.95;3.33;;;179.30;2252.80;;;;;;4845101;29;20082;-81
2022/04/10 05:19:40;;;;;;;5.65;4.15;;;179.50;2252.80;;;;;;4845801;29;20594;-79
2022/04/10 05:22:06;;;;;;;8.60;6.03;;;154.50;2252.80;;;;;;4845686;29;20491;-79
2022/04/10 05:24:32;;;;;;;7.35;5.30;;;179.30;2252.80;;;;;;4845111;29;20034;-81
2022/04/10 05:26:58;;;;;;;5.78;4.20;;;179.30;2252.80;;;;;;4845771;29;20483;-78
2022/04/10 05:29:24;;;;;;;16.77;10.10;;;179.40;2252.80;;;;;;4846067;29;20038;-80
2022/04/10 05:31:50;;;;;;;16.42;11.75;;;179.60;2252.80;;;;;;4848094;29;20478;-79
2022/04/10 05:34:16;;;;;;;7.25;5.30;;;179.60;2252.80;;;;;;4863737;29;20400;-81
2022/04/10 05:36:42;;;;;;;10.55;6.97;;;179.50;2252.80;;;;;;4863417;29;20041;-81
2022/04/10 05:39:08;;;;;;;5.93;4.13;;;179.60;2252.80;;;;;;4852205;29;20034;-79
2022/04/10 05:41:34;;;;;;;10.73;6.28;;;179.50;2252.80;;;;;;4843847;29;20038;-79
2022/04/10 05:44:00;;;;;;;6.88;5.13;;;179.60;2252.80;;;;;;4846363;29;20033;-79
2022/04/10 05:46:26;;;;;;;10.20;7.10;;;179.60;2252.80;;;;;;4856462;29;20037;-81
2022/04/10 05:48:52;;;;;;;8.00;5.95;;;179.80;2252.80;;;;;;4849952;29;20042;-80
2022/04/10 05:51:18;;;;;;;10.85;6.72;;;179.60;2252.80;;;;;;4844712;29;20049;-80
2022/04/10 05:53:44;;;;;;;12.90;5.90;;;179.70;2252.80;;;;;;4845208;29;20115;-79
2022/04/10 05:56:10;;;;;;;10.18;7.22;;;179.70;2252.80;;;;;;4845685;29;20036;-81
2022/04/10 05:58:35;;;;;;;13.10;8.57;;;179.80;2252.80;;;;;;4844303;29;20030;-81
2022/04/10 06:01:01;;;;;;;10.30;8.98;;;179.80;2252.80;;;;;;4844646;29;20451;-81
2022/04/10 06:03:27;;;;;;;13.48;7.55;;;179.70;2252.80;;;;;;4844747;29;20030;-77
2022/04/10 06:05:53;;;;;;;8.98;6.15;;;179.80;2252.80;;;;;;4844829;29;20026;-79
2022/04/10 06:08:19;;;;;;;8.00;5.38;;;179.70;2252.80;;;;;;4846288;29;20045;-80
2022/04/10 06:10:48;;;;;;;13.77;8.68;;;179.70;2252.80;;;;;;4844806;29;20041;-80
2022/04/10 06:13:14;;;;;;;25.65;14.32;;;179.80;2252.80;;;;;;4844575;29;20030;-78
2022/04/10 06:15:39;;;;;;;12.73;8.60;;;179.90;2252.80;;;;;;4846872;29;20061;-81
2022/04/10 06:18:07;;;;;;;14.48;11.00;;;179.80;2252.80;;;;;;4849328;29;20499;-78
2022/04/10 06:20:37;;;;;;;9.00;5.93;;;179.80;2252.80;;;;;;4849109;29;20094;-82
2022/04/10 06:23:03;;;;;;;10.43;8.65;;;179.60;2252.80;;;;;;4851496;29;20038;-78
2022/04/10 06:25:29;;;;;;;13.27;8.68;;;179.70;2252.80;;;;;;4848842;29;20030;-80
2022/04/10 06:27:58;;;;;;;15.32;11.35;;;179.70;2252.80;;;;;;4849244;29;20022;-81
2022/04/10 06:30:24;;;;;;;13.15;10.55;;;179.60;2252.80;;;;;;4849055;29;20063;-79
2022/04/10 06:32:50;;;;;;;14.25;11.02;;;179.40;2252.80;;;;;;4834151;29;20034;-81
2022/04/10 06:35:16;;;;;;;9.30;6.22;;;179.30;2252.80;;;;;;4849836;29;20034;-81
2022/04/10 06:37:43;;;;;;;13.63;9.38;;;179.30;2252.80;;;;;;4849696;29;20061;-79
2022/04/10 06:40:09;;;;;;;21.88;13.45;;;179.30;2252.80;;;;;;4849918;29;20034;-82
2022/04/10 06:42:34;;;;;;;15.68;11.02;;;179.40;2252.80;;;;;;4849437;29;20026;-79
2022/04/10 06:45:04;;;;;;;12.35;8.57;;;179.40;2252.80;;;;;;4834535;29;20030;-83
2022/04/10 06:47:31;;;;;;;10.60;7.07;;;179.30;2252.80;;;;;;4850731;29;20030;-80
2022/04/10 06:49:58;;;;;;;14.40;10.18;;;179.20;2252.80;;;;;;4845481;29;20124;-80
2022/04/10 06:52:24;;;;;;;11.30;7.88;;;179.30;2252.80;;;;;;4844480;29;20026;-78
2022/04/10 06:54:50;;;;;;;12.32;7.72;;;179.30;2252.80;;;;;;4844655;29;20082;-80
2022/04/10 06:57:16;;;;;;;13.20;8.65;;;154.50;2252.80;;;;;;4846525;29;20026;-81
2022/04/10 06:59:42;;;;;;;11.27;7.25;;;154.40;2252.80;;;;;;4846325;29;20045;-82
2022/04/10 07:02:07;;;;;;;12.65;9.68;;;154.50;2252.80;;;;;;4845772;29;20079;-81
2022/04/10 07:04:34;;;;;;;13.43;9.88;;;154.30;2252.80;;;;;;4846162;29;20488;-79
2022/04/10 07:07:00;;;;;;;13.88;10.10;;;154.30;2252.80;;;;;;4845368;29;20034;-79
2022/04/10 07:09:25;;;;;;;14.77;10.77;;;154.20;2252.80;;;;;;4844871;29;20040;-79
2022/04/10 07:11:52;;;;;;;33.22;20.25;;;154.20;2252.80;;;;;;4844731;29;20041;-83
2022/04/10 07:14:18;;;;;;;15.88;10.20;;;154.10;2252.80;;;;;;4844974;29;20498;-81
2022/04/10 07:16:44;;;;;;;19.65;12.27;;;154.10;2252.80;;;;;;4844708;29;20026;-78
2022/04/10 07:19:10;;;;;;;22.15;13.30;;;154.10;2252.80;;;;;;4845265;29;20044;-80
2022/04/10 07:24:20;;;;;;;24.33;14.68;;;154.20;2252.80;;;;;;4845961;29;20056;-80
2022/04/10 07:26:46;;;;;;;25.38;16.33;;;154.30;2252.80;;;;;;4845605;29;20026;-78
2022/04/10 07:29:12;;;;;;;29.38;19.25;;;154.30;2252.80;;;;;;4831132;29;20026;-79
2022/04/10 07:31:40;;;;;;;18.85;13.65;;;154.20;2252.80;;;;;;4845839;29;20030;-80
2022/04/10 07:34:06;;;;;;;27.15;16.45;;;154.50;2252.80;;;;;;4845443;29;20037;-81
2022/04/10 07:36:32;;;;;;;26.33;14.10;;;154.20;2252.80;;;;;;4844339;29;20805;-77
2022/04/10 07:38:58;;;;;;;19.40;13.13;;;154.20;2252.80;;;;;;4829583;29;20033;-81
2022/04/10 07:41:24;;;;;;;24.83;18.27;;;154.30;2252.80;;;;;;4829618;29;20121;-79
2022/04/10 07:43:50;;;;;;;27.27;20.27;;;154.40;2252.80;;;;;;4829946;29;20041;-79
2022/04/10 07:49:00;;;;;;;49.20;30.85;;;154.40;2252.80;;;;;;4846502;29;20399;-81
2022/04/10 07:51:26;;;;;;;38.38;24.23;;;154.40;2252.80;;;;;;4844886;29;20022;-81
2022/04/10 07:53:54;;;;;;;39.90;25.67;;;154.40;2252.80;;;;;;4844667;29;20053;-80
2022/04/10 07:56:21;;;;;;;14.85;11.18;;;154.50;2252.80;;;;;;4845309;29;20026;-79
2022/04/10 07:58:47;;;;;;;14.70;11.20;;;154.50;2252.80;;;;;;4845776;29;20026;-82
2022/04/10 08:01:13;;;;;;;13.98;10.80;;;179.20;2252.80;;;;;;4845600;29;20161;-81
2022/04/10 08:03:39;;;;;;;12.57;9.20;;;179.30;2252.80;;;;;;4845796;29;20030;-81
2022/04/10 08:06:05;;;;;;;15.07;10.70;;;154.40;2252.80;;;;;;4845812;29;20033;-79
2022/04/10 08:08:31;;;;;;;29.98;20.30;;;154.40;2252.80;;;;;;4845620;29;20053;-79
2022/04/10 08:10:58;;;;;;;10.27;7.35;;;154.40;2252.80;;;;;;4845187;29;20037;-79
2022/04/10 08:13:23;;;;;;;53.50;35.58;;;154.40;2252.80;;;;;;4844777;29;20030;-79
2022/04/10 08:15:49;;;;;;;36.08;24.30;;;154.40;2252.80;;;;;;4829586;29;20034;-80
2022/04/10 08:18:16;;;;;;;25.52;18.58;;;154.50;2252.80;;;;;;4846289;29;20403;-80
2022/04/10 08:20:42;;;;;;;150.82;86.70;;;179.30;2252.80;;;;;;4847480;29;20037;-80
2022/04/10 08:23:08;;;;;;;57.85;42.10;;;179.40;2252.80;;;;;;4846917;29;20030;-81
2022/04/10 08:25:35;;;;;;;33.15;24.25;;;179.40;2252.80;;;;;;4832684;29;20029;-81
2022/04/10 08:28:01;;;;;;;39.92;26.27;;;179.40;2252.80;;;;;;4846549;29;20033;-82
2022/04/10 08:30:27;;;;;;;31.90;24.23;;;179.40;2252.80;;;;;;4831225;29;20026;-81
2022/04/10 08:32:53;;;;;;;17.35;13.30;;;179.60;2252.80;;;;;;4845284;29;20029;-79
2022/04/10 08:35:19;;;;;;;13.57;10.60;;;179.80;2252.80;;;;;;4844003;29;20036;-82
2022/04/10 08:37:45;;;;;;;11.65;8.40;;;179.90;2252.80;;;;;;4843725;29;20080;-81
2022/04/10 08:40:11;;;;;;;11.00;8.77;;;180.10;2252.80;;;;;;4843486;29;20118;-80
2022/04/10 08:42:38;;;;;;;10.55;8.43;;;180.10;2252.80;;;;;;4843830;29;20123;-78
2022/04/10 08:45:09;;;;;;;14.00;11.13;;;180.10;2252.80;;;;;;4844519;29;20062;-79
2022/04/10 08:47:37;;;;;;;16.50;14.13;;;204.90;2252.80;;;;;;4843104;29;20034;-82
2022/04/10 08:50:03;;;;;;;16.20;13.95;;;205.00;2252.80;;;;;;4843503;29;20483;-78
2022/04/10 08:52:30;;;;;;;17.33;14.10;;;205.00;2252.80;;;;;;4844736;29;20038;-78
2022/04/10 08:54:56;;;;;;;15.75;11.80;;;205.20;2252.80;;;;;;4843846;29;20076;-79
2022/04/10 08:57:22;;;;;;;8.13;6.72;;;205.20;2252.80;;;;;;4845137;29;20048;-81
2022/04/10 08:59:48;;;;;;;15.38;12.65;;;205.30;2252.80;;;;;;4843075;29;20034;-81
2022/04/10 09:02:14;;;;;;;10.27;7.75;;;205.70;2252.80;;;;;;4843427;29;20053;-82
2022/04/10 09:04:40;;;;;;;11.30;8.27;;;205.10;2252.80;;;;;;4842972;29;20030;-81
2022/04/10 09:07:11;;;;;;;21.98;17.15;;;205.30;2252.80;;;;;;4842979;29;20113;-82
2022/04/10 09:09:42;;;;;;;26.00;18.45;;;205.50;2252.80;;;;;;4843790;29;20029;-81
2022/04/10 09:12:08;;;;;;;24.08;18.10;;;205.50;2252.80;;;;;;4844420;29;20038;-82
2022/04/10 09:14:37;;;;;;;30.15;22.40;;;205.50;2252.80;;;;;;4843443;29;20399;-82
2022/04/10 09:17:15;;;;;;;32.83;25.15;;;205.50;2252.80;;;;;;4842957;29;20034;-79
2022/04/10 09:19:49;;;;;;;27.27;22.48;;;205.50;2252.80;;;;;;4842644;29;20030;-81
2022/04/10 09:22:23;;;;;;;35.47;23.92;;;205.40;2252.80;;;;;;4843119;29;20058;-83
2022/04/10 09:25:04;;;;;;;19.35;14.30;;;205.40;2252.80;;;;;;4842887;29;20026;-80
2022/04/10 09:27:31;;;;;;;22.17;16.05;;;205.30;2252.80;;;;;;4842665;29;20121;-82
2022/04/10 09:29:58;;;;;;;19.15;14.63;;;205.20;2252.80;;;;;;4842418;29;20029;-81
2022/04/10 09:32:35;;;;;;;22.15;13.50;;;205.20;2252.80;;;;;;4842342;29;20041;-81
2022/04/10 09:35:01;;;;;;;12.95;9.45;;;205.20;2252.80;;;;;;4827465;29;20057;-80
2022/04/10 09:37:30;;;;;;;13.90;10.10;;;205.10;2252.80;;;;;;4842489;29;20053;-81
2022/04/10 09:40:34;;;;;;;12.50;9.15;;;205.10;2252.80;;;;;;4827649;29;20573;-81
2022/04/10 09:43:10;;;;;;;13.02;9.07;;;205.20;2252.80;;;;;;4842071;29;20034;-80
2022/04/10 09:45:40;;;;;;;17.92;12.60;;;205.20;2252.80;;;;;;4842059;29;20181;-81
2022/04/10 09:48:28;;;;;;;18.83;14.13;;;205.20;2252.80;;;;;;4826930;29;20049;-81
2022/04/10 09:50:57;;;;;;;26.00;18.63;;;205.30;2252.80;;;;;;4841466;29;20068;-83
2022/04/10 09:53:26;;;;;;;32.72;22.38;;;205.30;2252.80;;;;;;4841842;29;20038;-82
2022/04/10 09:55:54;;;;;;;26.25;18.63;;;205.30;2252.80;;;;;;4845442;29;20090;-80
2022/04/10 09:58:21;;;;;;;26.30;18.92;;;205.20;2252.80;;;;;;4844488;29;20496;-82
2022/04/10 10:00:49;;;;;;;28.38;22.23;;;205.20;2252.80;;;;;;4845399;29;20034;-81
2022/04/10 10:03:16;;;;;;;17.20;10.77;;;205.30;2252.80;;;;;;4844741;29;20030;-83
2022/04/10 10:05:43;;;;;;;23.15;17.02;;;205.30;2252.80;;;;;;4844601;29;20034;-83
2022/04/10 10:08:09;;;;;;;22.92;15.27;;;205.20;2252.80;;;;;;4844817;29;20030;-84
2022/04/10 10:10:37;;;;;;;21.38;14.73;;;205.20;2252.80;;;;;;4845756;29;20026;-81
2022/04/10 10:13:08;;;;;;;14.70;10.65;;;205.20;2252.80;;;;;;4846061;29;20494;-84
2022/04/10 10:15:38;;;;;;;16.80;12.10;;;205.20;2252.80;;;;;;4845714;29;20125;-84
2022/04/10 10:18:09;;;;;;;56.90;34.83;;;205.20;2252.80;;;;;;4844743;29;20116;-83
2022/04/10 10:20:36;;;;;;;26.20;18.42;;;205.20;2252.80;;;;;;4844640;29;20382;-84
2022/04/10 10:23:09;;;;;;;21.20;16.25;;;205.30;2252.80;;;;;;4844578;29;20389;-80
2022/04/10 10:26:02;;;;;;;46.00;32.38;;;205.30;2252.80;;;;;;4844528;29;20022;-81
2022/04/10 10:28:46;;;;;;;16.42;10.90;;;205.40;2252.80;;;;;;4845040;29;20533;-81
2022/04/10 10:34:46;;;;;;;31.20;20.50;;;205.30;2252.80;;;;;;4837136;29;20038;-84
2022/04/10 10:37:38;;;;;;;;;;;205.30;2252.80;;;;;;4837364;29;20054;-84
2022/04/10 10:41:05;;;;;;;;;;;;;;;;;;;;;
2022/04/10 10:44:25;;;;;;;26.23;17.83;;;205.20;2252.80;;;;;;4864721;29;20037;-85
2022/04/10 10:47:07;;;;;;;31.58;22.65;;;205.30;2252.80;;;;;;4864605;29;20025;-86
2022/04/10 10:53:20;;;;;;;;;;;;;;;;;;;;;
2022/04/10 10:55:59;;;;;;;17.23;11.77;;;205.30;2252.80;;;;;;4863879;29;20486;-83
2022/04/10 11:02:31;;;;;;;17.73;12.77;;;204.90;2252.80;;;;;;4844735;29;20089;-82
2022/04/10 11:05:35;;;;;;;16.70;12.63;;;204.90;2252.80;;;;;;4848255;29;20030;-84
2022/04/10 11:08:40;;;;;;;;;;;;;;;;;;;;;
2022/04/10 11:11:57;;;;;;;18.52;12.40;;;205.00;2252.80;;;;;;4863882;29;20106;-85
2022/04/10 11:22:16;;;;;;;20.27;16.25;;;204.90;2252.80;;;;;;4843375;29;20084;-79
2022/04/10 11:25:48;;;;;;;;;;;;;;;;;;;;;
2022/04/10 11:28:45;;;;;;;19.75;13.07;;;204.80;2252.80;;;;;;4843086;29;20511;-84
2022/04/10 11:31:52;;;;;;;17.10;11.13;;;205.00;2252.80;;;;;;4809504;29;20484;-83
2022/04/10 11:34:41;;;;;;;15.85;12.63;;;204.80;2252.80;;;;;;4755314;30;20036;-83
2022/04/10 11:37:21;;;;;;;13.63;9.80;;;204.80;2252.80;;;;;;4807213;29;20031;-82
2022/04/10 11:43:23;;;;;;;15.18;11.63;;;204.80;2252.80;;;;;;4796174;29;20401;-84
2022/04/10 11:46:44;;;;;;;16.25;12.20;;;180.10;2252.80;;;;;;4788635;30;20039;-85
2022/04/10 11:49:38;;;;;;;16.48;11.93;;;204.90;2252.80;;;;;;4770187;30;20039;-83
2022/04/10 11:52:07;;;;;;;20.90;14.65;;;204.80;2252.80;;;;;;4758001;30;20131;-83
2022/04/10 11:54:39;;;;;;;24.77;16.23;;;180.00;2252.80;;;;;;4810378;29;20049;-81
2022/04/10 11:57:08;;;;;;;18.05;13.23;;;204.80;2252.80;;;;;;4809729;29;20600;-82
2022/04/10 11:59:53;;;;;;;21.60;15.13;;;204.80;2252.80;;;;;;4809681;29;20045;-85
2022/04/10 12:02:25;;;;;;;17.67;13.95;;;180.10;2252.80;;;;;;4809489;29;20054;-84
2022/04/10 12:04:52;;;;;;;17.98;13.20;;;180.00;2252.80;;;;;;4813083;29;20092;-82
2022/04/10 12:07:22;;;;;;;16.48;10.63;;;180.10;2252.80;;;;;;4813169;29;20595;-79
2022/04/10 12:09:51;;;;;;;17.48;13.27;;;180.10;2252.80;;;;;;4812633;29;20530;-82
2022/04/10 12:12:21;;;;;;;11.60;8.82;;;204.80;2252.80;;;;;;4811739;29;20049;-83
2022/04/10 12:14:54;;;;;;;14.15;10.15;;;204.80;2252.80;;;;;;4811821;29;20052;-83
2022/04/10 12:17:23;;;;;;;11.43;8.93;;;180.10;2252.80;;;;;;4834852;29;20038;-83
2022/04/10 12:20:05;;;;;;;16.48;11.73;;;179.80;2252.80;;;;;;4845826;29;20030;-80
2022/04/10 12:22:43;;;;;;;13.48;10.45;;;180.10;2252.80;;;;;;4842302;29;20047;-81
2022/04/10 12:25:18;;;;;;;12.20;10.10;;;180.00;2252.80;;;;;;4841485;29;20032;-84
2022/04/10 12:27:53;;;;;;;13.85;10.73;;;205.20;2252.80;;;;;;4842189;29;20030;-81
2022/04/10 12:30:49;;;;;;;23.15;17.33;;;179.90;2252.80;;;;;;4842691;29;20075;-81
2022/04/10 12:34:18;;;;;;;15.25;12.10;;;180.00;2252.80;;;;;;4852708;29;20402;-80
2022/04/10 12:43:36;;;;;;;17.60;12.32;;;180.00;2252.80;;;;;;4821498;29;20431;-80
2022/04/10 13:08:36;;;;;;;20.95;15.55;;;180.00;2252.80;;;;;;5802719;23;21173;-77
2022/04/10 13:11:18;;;;;;;21.00;17.30;;;180.00;2252.80;;;;;;4868943;29;20100;-76
2022/04/10 13:16:40;;;;;;;26.45;18.30;;;180.00;2252.80;;;;;;5729967;23;20042;-79
2022/04/10 13:19:08;;;;;;;19.10;14.32;;;180.10;2252.80;;;;;;4856713;29;20045;-79
2022/04/10 13:21:38;;;;;;;17.92;13.52;;;180.10;2252.80;;;;;;4845083;29;20037;-79
2022/04/10 13:24:06;;;;;;;18.50;14.65;;;180.10;2252.80;;;;;;4845537;29;20026;-78
2022/04/10 13:26:39;;;;;;;15.13;11.73;;;180.00;2252.80;;;;;;4845765;29;20082;-79
2022/04/10 13:29:15;;;;;;;16.25;12.63;;;180.00;2252.80;;;;;;4847682;29;20030;-78
2022/04/10 13:31:44;;;;;;;19.33;14.75;;;180.10;2252.80;;;;;;4848190;29;20031;-77
2022/04/10 13:34:10;;;;;;;21.25;16.52;;;204.80;2252.80;;;;;;4847545;29;20053;-76